Impacts TAF Board INFO
FOR SITUATIONAL AWARENESS. NOT TO BE USED FOR FLIGHT PLANNING PURPOSES.
IDs:

KCLE - Cleveland/Hopkins In, OH, US

Issued at 2352 UTC 21 Jan 2018
Updated at 0012 UTC 22 Jan 2018
Potential Impact None Slight Moderate High
Time<<23/01Z 23/02Z 23/03Z 23/04Z 23/05Z 23/06Z 23/07Z 23/08Z 23/09Z 23/10Z 23/11Z 23/12Z 23/13Z
Type PRVL PRVL PRVL PRVL PRVL
VIS 4 4 4 4 >6
CIG 15 15 15 15 10
Cover OVC OVC OVC OVC OVC
FltCat MVFR MVFR MVFR MVFR MVFR
WX -RA BR -RA BR -RA BR -RA BR --
WDir 180 180 180 180 200
WSpd 12 12 12 12 12
WGst -- -- -- -- --

Raw TAF
KCLE 212352Z 2200/2306 18005KT 6SM BR SCT008 OVC015
  TEMPO 2200/2204 4SM -SHRA BR OVC008
  FM220400 18005KT 4SM -SHRA BR OVC008
  FM221200 18007KT 6SM BR OVC012
  FM221500 18010KT P6SM OVC035
  FM221700 18015G25KT P6SM BKN035 BKN050
  FM222300 18012KT 4SM -RA BR OVC015
  FM230500 20012KT P6SM OVC010


METAR Board
Radar Display
Forecast Discussion

FOR SITUATIONAL AWARENESS. NOT TO BE USED FOR FLIGHT PLANNING PURPOSES.